sensor_id;sensor_type;location;lat;lon;timestamp;P1;durP1;ratioP1;P2;durP2;ratioP2
495;SDS011;39559;48.630;9.162;2022-10-31T00:02:05;11.43;;;9.00;;
495;SDS011;39559;48.630;9.162;2022-10-31T00:04:31;10.80;;;9.03;;
495;SDS011;39559;48.630;9.162;2022-10-31T00:06:56;10.13;;;9.10;;
495;SDS011;39559;48.630;9.162;2022-10-31T00:09:22;10.57;;;8.73;;
495;SDS011;39559;48.630;9.162;2022-10-31T00:11:47;13.87;;;10.63;;
495;SDS011;39559;48.630;9.162;2022-10-31T00:14:13;13.10;;;10.73;;
495;SDS011;39559;48.630;9.162;2022-10-31T00:16:38;21.97;;;10.50;;
495;SDS011;39559;48.630;9.162;2022-10-31T00:19:05;12.13;;;9.75;;
495;SDS011;39559;48.630;9.162;2022-10-31T00:21:32;11.63;;;9.00;;
495;SDS011;39559;48.630;9.162;2022-10-31T00:26:04;10.82;;;9.00;;
495;SDS011;39559;48.630;9.162;2022-10-31T00:28:34;11.93;;;10.32;;
495;SDS011;39559;48.630;9.162;2022-10-31T00:31:04;24.17;;;11.27;;
495;SDS011;39559;48.630;9.162;2022-10-31T00:33:32;11.07;;;9.85;;
495;SDS011;39559;48.630;9.162;2022-10-31T00:35:59;10.70;;;9.65;;
495;SDS011;39559;48.630;9.162;2022-10-31T00:38:25;12.07;;;9.40;;
495;SDS011;39559;48.630;9.162;2022-10-31T00:40:50;11.30;;;9.80;;
495;SDS011;39559;48.630;9.162;2022-10-31T00:43:16;11.80;;;10.07;;
495;SDS011;39559;48.630;9.162;2022-10-31T00:45:42;12.87;;;9.70;;
495;SDS011;39559;48.630;9.162;2022-10-31T00:50:02;10.85;;;9.13;;
495;SDS011;39559;48.630;9.162;2022-10-31T00:52:28;13.80;;;9.32;;
495;SDS011;39559;48.630;9.162;2022-10-31T00:54:54;15.70;;;9.63;;
495;SDS011;39559;48.630;9.162;2022-10-31T00:57:19;12.87;;;10.50;;
495;SDS011;39559;48.630;9.162;2022-10-31T00:59:45;10.53;;;8.93;;
495;SDS011;39559;48.630;9.162;2022-10-31T01:02:10;17.50;;;10.47;;
495;SDS011;39559;48.630;9.162;2022-10-31T01:04:39;30.03;;;10.47;;
495;SDS011;39559;48.630;9.162;2022-10-31T01:07:04;10.18;;;8.98;;
495;SDS011;39559;48.630;9.162;2022-10-31T01:09:30;9.27;;;8.20;;
495;SDS011;39559;48.630;9.162;2022-10-31T01:14:02;10.85;;;8.30;;
495;SDS011;39559;48.630;9.162;2022-10-31T01:16:28;93.15;;;14.45;;
495;SDS011;39559;48.630;9.162;2022-10-31T01:18:56;67.25;;;14.07;;
495;SDS011;39559;48.630;9.162;2022-10-31T01:21:25;11.07;;;8.53;;
495;SDS011;39559;48.630;9.162;2022-10-31T01:23:52;13.35;;;8.45;;
495;SDS011;39559;48.630;9.162;2022-10-31T01:26:26;10.20;;;8.88;;
495;SDS011;39559;48.630;9.162;2022-10-31T01:28:54;11.25;;;8.43;;
495;SDS011;39559;48.630;9.162;2022-10-31T01:31:22;10.40;;;8.60;;
495;SDS011;39559;48.630;9.162;2022-10-31T01:33:50;10.27;;;8.90;;
495;SDS011;39559;48.630;9.162;2022-10-31T01:37:57;8.57;;;7.78;;
495;SDS011;39559;48.630;9.162;2022-10-31T01:40:23;9.03;;;8.07;;
495;SDS011;39559;48.630;9.162;2022-10-31T01:42:48;14.50;;;9.10;;
495;SDS011;39559;48.630;9.162;2022-10-31T01:45:14;10.90;;;9.10;;
495;SDS011;39559;48.630;9.162;2022-10-31T01:47:44;19.88;;;10.57;;
495;SDS011;39559;48.630;9.162;2022-10-31T01:50:14;9.60;;;8.60;;
495;SDS011;39559;48.630;9.162;2022-10-31T01:52:49;20.15;;;8.23;;
495;SDS011;39559;48.630;9.162;2022-10-31T01:55:18;9.38;;;7.95;;
495;SDS011;39559;48.630;9.162;2022-10-31T01:57:50;15.45;;;8.13;;
495;SDS011;39559;48.630;9.162;2022-10-31T02:01:56;10.30;;;8.68;;
495;SDS011;39559;48.630;9.162;2022-10-31T02:04:22;11.77;;;8.87;;
495;SDS011;39559;48.630;9.162;2022-10-31T02:07:02;11.02;;;8.40;;
495;SDS011;39559;48.630;9.162;2022-10-31T02:09:34;13.35;;;8.73;;
495;SDS011;39559;48.630;9.162;2022-10-31T02:12:02;20.65;;;8.70;;
495;SDS011;39559;48.630;9.162;2022-10-31T02:14:28;8.47;;;7.67;;
495;SDS011;39559;48.630;9.162;2022-10-31T02:16:55;12.48;;;8.80;;
495;SDS011;39559;48.630;9.162;2022-10-31T02:19:43;8.73;;;7.93;;
495;SDS011;39559;48.630;9.162;2022-10-31T02:22:16;10.02;;;7.88;;
495;SDS011;39559;48.630;9.162;2022-10-31T02:34:01;8.80;;;7.97;;
495;SDS011;39559;48.630;9.162;2022-10-31T02:44:22;10.38;;;8.35;;
495;SDS011;39559;48.630;9.162;2022-10-31T02:52:43;8.43;;;7.40;;
495;SDS011;39559;48.630;9.162;2022-10-31T02:55:55;9.23;;;8.20;;
495;SDS011;39559;48.630;9.162;2022-10-31T02:58:13;9.77;;;7.78;;
495;SDS011;39559;48.630;9.162;2022-10-31T03:00:51;10.30;;;7.80;;
495;SDS011;39559;48.630;9.162;2022-10-31T03:06:32;13.35;;;8.57;;
495;SDS011;39559;48.630;9.162;2022-10-31T03:09:11;13.95;;;8.20;;
495;SDS011;39559;48.630;9.162;2022-10-31T03:16:23;12.90;;;8.65;;
495;SDS011;39559;48.630;9.162;2022-10-31T03:21:27;13.18;;;7.78;;
495;SDS011;39559;48.630;9.162;2022-10-31T03:23:56;12.35;;;8.43;;
495;SDS011;39559;48.630;9.162;2022-10-31T03:26:24;7.90;;;7.10;;
495;SDS011;39559;48.630;9.162;2022-10-31T03:29:01;8.85;;;7.40;;
495;SDS011;39559;48.630;9.162;2022-10-31T03:31:31;12.48;;;7.38;;
495;SDS011;39559;48.630;9.162;2022-10-31T03:34:05;9.20;;;7.05;;
495;SDS011;39559;48.630;9.162;2022-10-31T03:37:50;9.90;;;8.82;;
495;SDS011;39559;48.630;9.162;2022-10-31T03:40:19;8.63;;;7.82;;
495;SDS011;39559;48.630;9.162;2022-10-31T03:42:50;9.15;;;6.93;;
495;SDS011;39559;48.630;9.162;2022-10-31T03:45:21;11.95;;;8.43;;
495;SDS011;39559;48.630;9.162;2022-10-31T03:47:51;9.13;;;8.00;;
495;SDS011;39559;48.630;9.162;2022-10-31T03:50:18;11.93;;;8.05;;
495;SDS011;39559;48.630;9.162;2022-10-31T03:52:49;11.82;;;9.07;;
495;SDS011;39559;48.630;9.162;2022-10-31T03:55:28;9.27;;;8.40;;
495;SDS011;39559;48.630;9.162;2022-10-31T04:01:49;8.75;;;7.28;;
495;SDS011;39559;48.630;9.162;2022-10-31T04:04:18;9.77;;;7.53;;
495;SDS011;39559;48.630;9.162;2022-10-31T04:06:45;8.07;;;7.30;;
495;SDS011;39559;48.630;9.162;2022-10-31T04:09:12;12.63;;;7.55;;
495;SDS011;39559;48.630;9.162;2022-10-31T04:11:43;13.02;;;7.93;;
495;SDS011;39559;48.630;9.162;2022-10-31T04:14:16;10.07;;;7.10;;
495;SDS011;39559;48.630;9.162;2022-10-31T04:16:43;13.10;;;7.50;;
495;SDS011;39559;48.630;9.162;2022-10-31T04:19:10;8.63;;;7.78;;
495;SDS011;39559;48.630;9.162;2022-10-31T04:21:36;10.10;;;7.85;;
495;SDS011;39559;48.630;9.162;2022-10-31T04:25:49;12.50;;;6.93;;
495;SDS011;39559;48.630;9.162;2022-10-31T04:28:15;9.50;;;7.20;;
495;SDS011;39559;48.630;9.162;2022-10-31T04:30:40;7.87;;;6.77;;
495;SDS011;39559;48.630;9.162;2022-10-31T04:33:06;9.43;;;6.90;;
495;SDS011;39559;48.630;9.162;2022-10-31T04:35:31;7.63;;;6.83;;
495;SDS011;39559;48.630;9.162;2022-10-31T04:37:57;8.63;;;7.10;;
495;SDS011;39559;48.630;9.162;2022-10-31T04:40:22;8.20;;;7.40;;
495;SDS011;39559;48.630;9.162;2022-10-31T04:42:51;10.77;;;7.40;;
495;SDS011;39559;48.630;9.162;2022-10-31T04:45:16;7.93;;;7.13;;
495;SDS011;39559;48.630;9.162;2022-10-31T04:49:45;6.95;;;6.22;;
495;SDS011;39559;48.630;9.162;2022-10-31T04:52:10;9.10;;;6.03;;
495;SDS011;39559;48.630;9.162;2022-10-31T04:54:36;13.70;;;7.77;;
495;SDS011;39559;48.630;9.162;2022-10-31T04:57:01;41.87;;;9.93;;
495;SDS011;39559;48.630;9.162;2022-10-31T04:59:27;11.97;;;7.80;;
495;SDS011;39559;48.630;9.162;2022-10-31T05:01:52;7.97;;;7.17;;
495;SDS011;39559;48.630;9.162;2022-10-31T05:04:18;10.00;;;7.13;;
495;SDS011;39559;48.630;9.162;2022-10-31T05:06:43;8.63;;;6.93;;
495;SDS011;39559;48.630;9.162;2022-10-31T05:09:09;7.30;;;6.63;;
495;SDS011;39559;48.630;9.162;2022-10-31T05:13:44;11.45;;;7.05;;
495;SDS011;39559;48.630;9.162;2022-10-31T05:16:09;9.70;;;7.50;;
495;SDS011;39559;48.630;9.162;2022-10-31T05:18:35;9.33;;;7.67;;
495;SDS011;39559;48.630;9.162;2022-10-31T05:21:00;12.90;;;7.60;;
495;SDS011;39559;48.630;9.162;2022-10-31T05:23:26;132.10;;;15.47;;
495;SDS011;39559;48.630;9.162;2022-10-31T05:25:51;19.93;;;8.27;;
495;SDS011;39559;48.630;9.162;2022-10-31T05:28:17;35.87;;;7.73;;
495;SDS011;39559;48.630;9.162;2022-10-31T05:30:42;8.70;;;6.50;;
495;SDS011;39559;48.630;9.162;2022-10-31T05:33:08;7.50;;;6.80;;
495;SDS011;39559;48.630;9.162;2022-10-31T05:37:43;18.17;;;6.50;;
495;SDS011;39559;48.630;9.162;2022-10-31T05:40:09;6.30;;;5.70;;
495;SDS011;39559;48.630;9.162;2022-10-31T05:42:37;9.45;;;6.50;;
495;SDS011;39559;48.630;9.162;2022-10-31T05:45:03;6.22;;;5.63;;
495;SDS011;39559;48.630;9.162;2022-10-31T05:47:29;8.00;;;5.40;;
495;SDS011;39559;48.630;9.162;2022-10-31T05:49:55;8.37;;;6.80;;
495;SDS011;39559;48.630;9.162;2022-10-31T05:52:20;8.43;;;6.70;;
495;SDS011;39559;48.630;9.162;2022-10-31T05:54:46;6.83;;;5.60;;
495;SDS011;39559;48.630;9.162;2022-10-31T05:57:11;9.70;;;6.60;;
495;SDS011;39559;48.630;9.162;2022-10-31T06:01:43;15.45;;;6.55;;
495;SDS011;39559;48.630;9.162;2022-10-31T06:04:08;15.73;;;6.80;;
495;SDS011;39559;48.630;9.162;2022-10-31T06:06:33;14.17;;;6.90;;
495;SDS011;39559;48.630;9.162;2022-10-31T06:08:59;10.43;;;7.37;;
495;SDS011;39559;48.630;9.162;2022-10-31T06:11:24;7.60;;;6.80;;
495;SDS011;39559;48.630;9.162;2022-10-31T06:13:50;6.87;;;6.27;;
495;SDS011;39559;48.630;9.162;2022-10-31T06:16:15;9.37;;;6.40;;
495;SDS011;39559;48.630;9.162;2022-10-31T06:18:41;8.80;;;8.00;;
495;SDS011;39559;48.630;9.162;2022-10-31T06:21:06;13.20;;;7.40;;
495;SDS011;39559;48.630;9.162;2022-10-31T06:25:42;10.10;;;8.10;;
495;SDS011;39559;48.630;9.162;2022-10-31T06:28:07;10.73;;;7.97;;
495;SDS011;39559;48.630;9.162;2022-10-31T06:30:33;13.07;;;8.60;;
495;SDS011;39559;48.630;9.162;2022-10-31T06:33:02;9.53;;;7.87;;
495;SDS011;39559;48.630;9.162;2022-10-31T06:35:29;8.77;;;7.80;;
495;SDS011;39559;48.630;9.162;2022-10-31T06:37:54;8.77;;;7.87;;
495;SDS011;39559;48.630;9.162;2022-10-31T06:40:20;8.60;;;6.90;;
495;SDS011;39559;48.630;9.162;2022-10-31T06:42:46;8.95;;;7.88;;
495;SDS011;39559;48.630;9.162;2022-10-31T06:45:12;7.77;;;6.73;;
495;SDS011;39559;48.630;9.162;2022-10-31T06:49:40;9.18;;;6.90;;
495;SDS011;39559;48.630;9.162;2022-10-31T06:52:06;12.13;;;8.20;;
495;SDS011;39559;48.630;9.162;2022-10-31T06:54:31;8.87;;;7.47;;
495;SDS011;39559;48.630;9.162;2022-10-31T06:56:57;11.10;;;7.80;;
495;SDS011;39559;48.630;9.162;2022-10-31T06:59:22;7.93;;;7.13;;
495;SDS011;39559;48.630;9.162;2022-10-31T07:01:49;8.30;;;7.22;;
495;SDS011;39559;48.630;9.162;2022-10-31T07:04:15;8.75;;;7.30;;
495;SDS011;39559;48.630;9.162;2022-10-31T07:06:40;10.40;;;8.50;;
495;SDS011;39559;48.630;9.162;2022-10-31T07:09:06;14.13;;;8.50;;
495;SDS011;39559;48.630;9.162;2022-10-31T07:13:40;11.25;;;8.23;;
495;SDS011;39559;48.630;9.162;2022-10-31T07:16:06;9.40;;;7.77;;
495;SDS011;39559;48.630;9.162;2022-10-31T07:18:32;9.15;;;7.72;;
495;SDS011;39559;48.630;9.162;2022-10-31T07:20:58;13.02;;;7.70;;
495;SDS011;39559;48.630;9.162;2022-10-31T07:23:23;10.23;;;7.27;;
495;SDS011;39559;48.630;9.162;2022-10-31T07:25:53;12.80;;;9.00;;
495;SDS011;39559;48.630;9.162;2022-10-31T07:28:22;10.55;;;7.65;;
495;SDS011;39559;48.630;9.162;2022-10-31T07:30:55;9.80;;;8.07;;
495;SDS011;39559;48.630;9.162;2022-10-31T07:33:22;11.07;;;9.05;;
495;SDS011;39559;48.630;9.162;2022-10-31T07:37:39;14.30;;;10.10;;
495;SDS011;39559;48.630;9.162;2022-10-31T07:40:05;11.63;;;9.70;;
495;SDS011;39559;48.630;9.162;2022-10-31T07:42:36;12.60;;;10.40;;
495;SDS011;39559;48.630;9.162;2022-10-31T07:45:05;12.95;;;10.52;;
495;SDS011;39559;48.630;9.162;2022-10-31T07:47:38;12.73;;;11.43;;
495;SDS011;39559;48.630;9.162;2022-10-31T07:50:08;16.17;;;12.32;;
495;SDS011;39559;48.630;9.162;2022-10-31T07:52:35;12.90;;;11.30;;
495;SDS011;39559;48.630;9.162;2022-10-31T07:55:01;13.67;;;10.97;;
495;SDS011;39559;48.630;9.162;2022-10-31T07:57:27;11.98;;;10.57;;
495;SDS011;39559;48.630;9.162;2022-10-31T08:01:39;10.13;;;9.13;;
495;SDS011;39559;48.630;9.162;2022-10-31T08:04:04;10.63;;;9.03;;
495;SDS011;39559;48.630;9.162;2022-10-31T08:06:30;12.13;;;9.53;;
495;SDS011;39559;48.630;9.162;2022-10-31T08:08:55;11.43;;;10.33;;
495;SDS011;39559;48.630;9.162;2022-10-31T08:11:21;11.77;;;9.27;;
495;SDS011;39559;48.630;9.162;2022-10-31T08:13:46;12.13;;;10.70;;
495;SDS011;39559;48.630;9.162;2022-10-31T08:16:12;20.13;;;11.13;;
495;SDS011;39559;48.630;9.162;2022-10-31T08:18:37;12.73;;;11.40;;
495;SDS011;39559;48.630;9.162;2022-10-31T08:21:03;11.33;;;10.23;;
495;SDS011;39559;48.630;9.162;2022-10-31T08:25:38;11.65;;;10.10;;
495;SDS011;39559;48.630;9.162;2022-10-31T08:28:05;13.00;;;10.40;;
495;SDS011;39559;48.630;9.162;2022-10-31T08:30:32;26.52;;;12.50;;
495;SDS011;39559;48.630;9.162;2022-10-31T08:33:03;11.23;;;10.00;;
495;SDS011;39559;48.630;9.162;2022-10-31T08:35:35;11.45;;;9.88;;
495;SDS011;39559;48.630;9.162;2022-10-31T08:38:01;10.53;;;9.00;;
495;SDS011;39559;48.630;9.162;2022-10-31T08:40:27;12.43;;;9.75;;
495;SDS011;39559;48.630;9.162;2022-10-31T08:43:02;12.98;;;9.75;;
495;SDS011;39559;48.630;9.162;2022-10-31T08:45:29;19.13;;;11.30;;
495;SDS011;39559;48.630;9.162;2022-10-31T08:49:36;13.70;;;10.45;;
495;SDS011;39559;48.630;9.162;2022-10-31T08:52:02;12.80;;;9.93;;
495;SDS011;39559;48.630;9.162;2022-10-31T08:54:28;10.50;;;9.60;;
495;SDS011;39559;48.630;9.162;2022-10-31T08:56:54;10.67;;;9.57;;
495;SDS011;39559;48.630;9.162;2022-10-31T08:59:20;12.65;;;10.40;;
495;SDS011;39559;48.630;9.162;2022-10-31T09:01:46;11.37;;;10.17;;
495;SDS011;39559;48.630;9.162;2022-10-31T09:04:11;12.40;;;9.77;;
495;SDS011;39559;48.630;9.162;2022-10-31T09:06:37;11.20;;;10.20;;
495;SDS011;39559;48.630;9.162;2022-10-31T09:09:02;10.57;;;9.47;;
495;SDS011;39559;48.630;9.162;2022-10-31T09:13:36;11.85;;;10.75;;
495;SDS011;39559;48.630;9.162;2022-10-31T09:16:02;11.57;;;9.40;;
495;SDS011;39559;48.630;9.162;2022-10-31T09:18:27;11.30;;;10.10;;
495;SDS011;39559;48.630;9.162;2022-10-31T09:20:53;12.33;;;9.80;;
495;SDS011;39559;48.630;9.162;2022-10-31T09:23:20;12.50;;;10.23;;
495;SDS011;39559;48.630;9.162;2022-10-31T09:25:47;12.88;;;10.25;;
495;SDS011;39559;48.630;9.162;2022-10-31T09:28:15;13.70;;;9.68;;
495;SDS011;39559;48.630;9.162;2022-10-31T09:30:45;11.13;;;9.93;;
495;SDS011;39559;48.630;9.162;2022-10-31T09:33:17;12.30;;;9.30;;
495;SDS011;39559;48.630;9.162;2022-10-31T09:37:35;10.23;;;8.88;;
495;SDS011;39559;48.630;9.162;2022-10-31T09:40:01;9.90;;;9.00;;
495;SDS011;39559;48.630;9.162;2022-10-31T09:42:45;15.63;;;11.27;;
495;SDS011;39559;48.630;9.162;2022-10-31T09:50:54;9.60;;;7.40;;
495;SDS011;39559;48.630;9.162;2022-10-31T09:53:39;9.80;;;7.50;;
495;SDS011;39559;48.630;9.162;2022-10-31T09:56:10;11.45;;;7.85;;
495;SDS011;39559;48.630;9.162;2022-10-31T09:58:41;8.90;;;8.00;;
495;SDS011;39559;48.630;9.162;2022-10-31T10:07:16;10.20;;;7.95;;
495;SDS011;39559;48.630;9.162;2022-10-31T10:25:37;11.65;;;7.10;;
495;SDS011;39559;48.630;9.162;2022-10-31T10:31:02;9.88;;;7.22;;
495;SDS011;39559;48.630;9.162;2022-10-31T10:36:44;9.85;;;7.10;;
495;SDS011;39559;48.630;9.162;2022-10-31T10:39:20;7.85;;;6.63;;
495;SDS011;39559;48.630;9.162;2022-10-31T10:41:50;10.15;;;8.57;;
495;SDS011;39559;48.630;9.162;2022-10-31T10:44:38;7.90;;;6.22;;
495;SDS011;39559;48.630;9.162;2022-10-31T10:49:40;9.25;;;6.55;;
495;SDS011;39559;48.630;9.162;2022-10-31T10:52:37;9.70;;;7.35;;
495;SDS011;39559;48.630;9.162;2022-10-31T10:55:48;8.00;;;6.90;;
495;SDS011;39559;48.630;9.162;2022-10-31T10:58:18;10.00;;;7.15;;
495;SDS011;39559;48.630;9.162;2022-10-31T11:00:44;8.20;;;7.03;;
495;SDS011;39559;48.630;9.162;2022-10-31T11:03:12;11.95;;;7.30;;
495;SDS011;39559;48.630;9.162;2022-10-31T11:05:50;12.15;;;8.38;;
495;SDS011;39559;48.630;9.162;2022-10-31T11:08:24;7.82;;;6.97;;
495;SDS011;39559;48.630;9.162;2022-10-31T11:13:31;7.35;;;6.65;;
495;SDS011;39559;48.630;9.162;2022-10-31T11:16:02;11.35;;;6.78;;
495;SDS011;39559;48.630;9.162;2022-10-31T11:18:36;12.23;;;7.10;;
495;SDS011;39559;48.630;9.162;2022-10-31T11:21:04;9.15;;;7.05;;
495;SDS011;39559;48.630;9.162;2022-10-31T11:23:30;7.13;;;6.10;;
495;SDS011;39559;48.630;9.162;2022-10-31T11:25:59;6.83;;;6.07;;
495;SDS011;39559;48.630;9.162;2022-10-31T11:28:27;7.90;;;6.97;;
495;SDS011;39559;48.630;9.162;2022-10-31T11:31:11;6.67;;;6.03;;
495;SDS011;39559;48.630;9.162;2022-10-31T11:33:45;7.53;;;6.60;;
495;SDS011;39559;48.630;9.162;2022-10-31T11:37:31;9.17;;;6.17;;
495;SDS011;39559;48.630;9.162;2022-10-31T11:40:01;8.73;;;6.70;;
495;SDS011;39559;48.630;9.162;2022-10-31T11:42:34;9.30;;;6.33;;
495;SDS011;39559;48.630;9.162;2022-10-31T11:45:06;7.00;;;6.30;;
495;SDS011;39559;48.630;9.162;2022-10-31T11:47:40;10.13;;;6.03;;
495;SDS011;39559;48.630;9.162;2022-10-31T11:50:10;9.80;;;6.17;;
495;SDS011;39559;48.630;9.162;2022-10-31T11:52:43;10.83;;;6.30;;
495;SDS011;39559;48.630;9.162;2022-10-31T11:57:44;9.20;;;6.33;;
495;SDS011;39559;48.630;9.162;2022-10-31T12:01:28;8.53;;;6.80;;
495;SDS011;39559;48.630;9.162;2022-10-31T12:04:08;7.10;;;6.20;;
495;SDS011;39559;48.630;9.162;2022-10-31T12:06:36;8.07;;;6.27;;
495;SDS011;39559;48.630;9.162;2022-10-31T12:09:29;11.40;;;5.80;;
495;SDS011;39559;48.630;9.162;2022-10-31T12:17:40;8.77;;;6.27;;
495;SDS011;39559;48.630;9.162;2022-10-31T12:25:32;9.87;;;6.37;;
495;SDS011;39559;48.630;9.162;2022-10-31T12:28:04;11.00;;;6.53;;
495;SDS011;39559;48.630;9.162;2022-10-31T12:31:08;9.30;;;5.87;;
495;SDS011;39559;48.630;9.162;2022-10-31T12:37:13;11.00;;;6.47;;
495;SDS011;39559;48.630;9.162;2022-10-31T12:39:58;8.50;;;6.00;;
495;SDS011;39559;48.630;9.162;2022-10-31T12:42:47;8.20;;;6.27;;
495;SDS011;39559;48.630;9.162;2022-10-31T12:52:17;6.87;;;5.90;;
495;SDS011;39559;48.630;9.162;2022-10-31T12:57:30;8.20;;;6.20;;
495;SDS011;39559;48.630;9.162;2022-10-31T13:00:11;10.87;;;6.60;;
495;SDS011;39559;48.630;9.162;2022-10-31T13:02:46;7.70;;;5.90;;
495;SDS011;39559;48.630;9.162;2022-10-31T13:08:05;10.50;;;5.93;;
495;SDS011;39559;48.630;9.162;2022-10-31T13:16:11;9.67;;;5.93;;
495;SDS011;39559;48.630;9.162;2022-10-31T13:21:19;8.00;;;5.90;;
495;SDS011;39559;48.630;9.162;2022-10-31T13:23:49;7.40;;;5.97;;
495;SDS011;39559;48.630;9.162;2022-10-31T13:31:39;8.70;;;6.40;;
495;SDS011;39559;48.630;9.162;2022-10-31T13:34:14;7.20;;;6.07;;
495;SDS011;39559;48.630;9.162;2022-10-31T13:42:40;6.83;;;5.53;;
495;SDS011;39559;48.630;9.162;2022-10-31T13:45:25;8.00;;;5.67;;
495;SDS011;39559;48.630;9.162;2022-10-31T13:47:55;8.00;;;6.50;;
495;SDS011;39559;48.630;9.162;2022-10-31T13:50:40;7.70;;;6.00;;
495;SDS011;39559;48.630;9.162;2022-10-31T13:53:19;7.53;;;5.70;;
495;SDS011;39559;48.630;9.162;2022-10-31T13:55:48;7.17;;;5.87;;
495;SDS011;39559;48.630;9.162;2022-10-31T13:58:28;9.87;;;6.30;;
495;SDS011;39559;48.630;9.162;2022-10-31T14:01:17;7.93;;;6.43;;
495;SDS011;39559;48.630;9.162;2022-10-31T14:03:47;6.73;;;6.03;;
495;SDS011;39559;48.630;9.162;2022-10-31T14:06:23;6.93;;;6.17;;
495;SDS011;39559;48.630;9.162;2022-10-31T14:09:04;8.20;;;6.20;;
495;SDS011;39559;48.630;9.162;2022-10-31T14:11:31;9.13;;;6.10;;
495;SDS011;39559;48.630;9.162;2022-10-31T14:13:57;9.70;;;6.03;;
495;SDS011;39559;48.630;9.162;2022-10-31T14:16:30;7.40;;;6.03;;
495;SDS011;39559;48.630;9.162;2022-10-31T14:18:58;7.90;;;5.80;;
495;SDS011;39559;48.630;9.162;2022-10-31T14:21:40;7.43;;;5.70;;
495;SDS011;39559;48.630;9.162;2022-10-31T14:27:52;7.23;;;6.20;;
495;SDS011;39559;48.630;9.162;2022-10-31T14:30:21;8.77;;;5.97;;
495;SDS011;39559;48.630;9.162;2022-10-31T14:32:50;6.70;;;5.80;;
495;SDS011;39559;48.630;9.162;2022-10-31T14:35:18;9.63;;;6.00;;
495;SDS011;39559;48.630;9.162;2022-10-31T14:37:55;8.30;;;6.17;;
495;SDS011;39559;48.630;9.162;2022-10-31T14:43:05;8.80;;;6.83;;
495;SDS011;39559;48.630;9.162;2022-10-31T14:51:44;8.40;;;6.33;;
495;SDS011;39559;48.630;9.162;2022-10-31T14:54:13;11.87;;;6.87;;
495;SDS011;39559;48.630;9.162;2022-10-31T14:56:49;12.10;;;6.57;;
495;SDS011;39559;48.630;9.162;2022-10-31T14:59:24;7.90;;;6.13;;
495;SDS011;39559;48.630;9.162;2022-10-31T15:01:56;8.30;;;6.50;;
495;SDS011;39559;48.630;9.162;2022-10-31T15:04:25;11.57;;;6.50;;
495;SDS011;39559;48.630;9.162;2022-10-31T15:09:36;8.20;;;5.93;;
495;SDS011;39559;48.630;9.162;2022-10-31T15:13:09;6.95;;;5.82;;
495;SDS011;39559;48.630;9.162;2022-10-31T15:15:42;7.53;;;6.47;;
495;SDS011;39559;48.630;9.162;2022-10-31T15:18:13;9.83;;;6.30;;
495;SDS011;39559;48.630;9.162;2022-10-31T15:20:43;7.65;;;5.97;;
495;SDS011;39559;48.630;9.162;2022-10-31T15:23:31;7.15;;;6.07;;
495;SDS011;39559;48.630;9.162;2022-10-31T15:26:00;11.50;;;6.95;;
495;SDS011;39559;48.630;9.162;2022-10-31T15:28:26;9.90;;;6.70;;
495;SDS011;39559;48.630;9.162;2022-10-31T15:30:56;7.77;;;6.63;;
495;SDS011;39559;48.630;9.162;2022-10-31T15:33:31;7.53;;;5.95;;
495;SDS011;39559;48.630;9.162;2022-10-31T15:37:02;10.75;;;6.57;;
495;SDS011;39559;48.630;9.162;2022-10-31T15:39:28;8.07;;;6.23;;
495;SDS011;39559;48.630;9.162;2022-10-31T15:41:54;7.90;;;5.90;;
495;SDS011;39559;48.630;9.162;2022-10-31T15:44:23;7.78;;;6.30;;
495;SDS011;39559;48.630;9.162;2022-10-31T15:46:52;8.68;;;6.88;;
495;SDS011;39559;48.630;9.162;2022-10-31T15:49:34;8.48;;;6.55;;
495;SDS011;39559;48.630;9.162;2022-10-31T15:54:54;7.30;;;5.78;;
495;SDS011;39559;48.630;9.162;2022-10-31T15:57:24;6.90;;;5.97;;
495;SDS011;39559;48.630;9.162;2022-10-31T16:01:03;11.57;;;6.20;;
495;SDS011;39559;48.630;9.162;2022-10-31T16:03:31;9.65;;;5.88;;
495;SDS011;39559;48.630;9.162;2022-10-31T16:05:59;9.55;;;7.00;;
495;SDS011;39559;48.630;9.162;2022-10-31T16:13:30;8.60;;;6.45;;
495;SDS011;39559;48.630;9.162;2022-10-31T16:16:02;12.63;;;7.20;;
495;SDS011;39559;48.630;9.162;2022-10-31T16:18:36;10.50;;;7.22;;
495;SDS011;39559;48.630;9.162;2022-10-31T16:21:03;11.65;;;7.80;;
495;SDS011;39559;48.630;9.162;2022-10-31T16:27:33;10.75;;;7.82;;
495;SDS011;39559;48.630;9.162;2022-10-31T16:30:02;8.95;;;7.65;;
495;SDS011;39559;48.630;9.162;2022-10-31T16:32:52;7.63;;;6.05;;
495;SDS011;39559;48.630;9.162;2022-10-31T16:35:26;9.18;;;6.95;;
495;SDS011;39559;48.630;9.162;2022-10-31T16:37:52;10.25;;;6.90;;
495;SDS011;39559;48.630;9.162;2022-10-31T16:40:19;14.02;;;7.03;;
495;SDS011;39559;48.630;9.162;2022-10-31T16:42:45;8.98;;;7.28;;
495;SDS011;39559;48.630;9.162;2022-10-31T16:45:17;11.02;;;7.60;;
495;SDS011;39559;48.630;9.162;2022-10-31T16:48:53;12.00;;;8.35;;
495;SDS011;39559;48.630;9.162;2022-10-31T16:51:19;9.93;;;8.93;;
495;SDS011;39559;48.630;9.162;2022-10-31T16:53:44;13.03;;;9.10;;
495;SDS011;39559;48.630;9.162;2022-10-31T16:56:16;9.90;;;8.40;;
495;SDS011;39559;48.630;9.162;2022-10-31T16:58:46;10.35;;;9.00;;
495;SDS011;39559;48.630;9.162;2022-10-31T17:01:12;12.10;;;9.93;;
495;SDS011;39559;48.630;9.162;2022-10-31T17:03:38;12.33;;;9.43;;
495;SDS011;39559;48.630;9.162;2022-10-31T17:06:03;15.23;;;9.73;;
495;SDS011;39559;48.630;9.162;2022-10-31T17:08:29;12.30;;;8.00;;
495;SDS011;39559;48.630;9.162;2022-10-31T17:12:49;12.75;;;7.50;;
495;SDS011;39559;48.630;9.162;2022-10-31T17:15:20;9.70;;;7.70;;
495;SDS011;39559;48.630;9.162;2022-10-31T17:17:48;10.00;;;7.90;;
495;SDS011;39559;48.630;9.162;2022-10-31T17:20:27;9.07;;;7.40;;
495;SDS011;39559;48.630;9.162;2022-10-31T17:22:54;9.05;;;7.93;;
495;SDS011;39559;48.630;9.162;2022-10-31T17:25:21;8.93;;;7.80;;
495;SDS011;39559;48.630;9.162;2022-10-31T17:27:48;10.93;;;8.07;;
495;SDS011;39559;48.630;9.162;2022-10-31T17:30:15;15.85;;;10.50;;
495;SDS011;39559;48.630;9.162;2022-10-31T17:32:42;16.73;;;12.43;;
495;SDS011;39559;48.630;9.162;2022-10-31T17:36:50;13.05;;;8.98;;
495;SDS011;39559;48.630;9.162;2022-10-31T17:39:17;10.63;;;8.95;;
495;SDS011;39559;48.630;9.162;2022-10-31T17:41:43;12.75;;;11.40;;
495;SDS011;39559;48.630;9.162;2022-10-31T17:44:10;21.70;;;19.60;;
495;SDS011;39559;48.630;9.162;2022-10-31T17:46:36;18.83;;;10.43;;
495;SDS011;39559;48.630;9.162;2022-10-31T17:49:02;15.27;;;11.38;;
495;SDS011;39559;48.630;9.162;2022-10-31T17:51:33;15.63;;;11.75;;
495;SDS011;39559;48.630;9.162;2022-10-31T17:53:59;12.13;;;10.93;;
495;SDS011;39559;48.630;9.162;2022-10-31T17:56:24;13.97;;;9.40;;
495;SDS011;39559;48.630;9.162;2022-10-31T18:00:44;16.17;;;11.05;;
495;SDS011;39559;48.630;9.162;2022-10-31T18:03:09;14.23;;;11.00;;
495;SDS011;39559;48.630;9.162;2022-10-31T18:05:35;16.80;;;13.57;;
495;SDS011;39559;48.630;9.162;2022-10-31T18:08:00;13.50;;;9.80;;
495;SDS011;39559;48.630;9.162;2022-10-31T18:10:26;9.40;;;8.50;;
495;SDS011;39559;48.630;9.162;2022-10-31T18:12:51;16.30;;;12.00;;
495;SDS011;39559;48.630;9.162;2022-10-31T18:15:17;16.20;;;12.03;;
495;SDS011;39559;48.630;9.162;2022-10-31T18:17:43;20.58;;;18.15;;
495;SDS011;39559;48.630;9.162;2022-10-31T18:20:09;15.80;;;13.40;;
495;SDS011;39559;48.630;9.162;2022-10-31T18:24:40;10.75;;;7.80;;
495;SDS011;39559;48.630;9.162;2022-10-31T18:27:06;14.90;;;8.83;;
495;SDS011;39559;48.630;9.162;2022-10-31T18:29:32;13.60;;;12.20;;
495;SDS011;39559;48.630;9.162;2022-10-31T18:31:57;12.40;;;10.80;;
495;SDS011;39559;48.630;9.162;2022-10-31T18:34:23;19.67;;;14.70;;
495;SDS011;39559;48.630;9.162;2022-10-31T18:36:48;16.53;;;13.83;;
495;SDS011;39559;48.630;9.162;2022-10-31T18:39:14;16.57;;;13.10;;
495;SDS011;39559;48.630;9.162;2022-10-31T18:41:39;17.83;;;14.00;;
495;SDS011;39559;48.630;9.162;2022-10-31T18:44:05;15.83;;;11.83;;